Time;durP1;ratioP1;P1;durP2;ratioP2;P2;SDS_P1;SDS_P2;PMS_P1;PMS_P2;Temp;Humidity;BMP_temperature;BMP_pressure;BME280_temperature;BME280_humidity;BME280_pressure;Samples;Min_cycle;Max_cycle;Signal;HPM_P1;HPM_P2
2022/12/16 00:00:44;;;;;;;;;;;;;;;-3.41;100.00;94921.13;5017813;28;19912;-84
2022/12/16 00:03:09;;;;;;;;;;;;;;;-3.40;100.00;94926.16;5008154;28;19916;-85
2022/12/16 00:05:36;;;;;;;;;;;;;;;-3.43;100.00;94928.13;5009397;28;20298;-85
2022/12/16 00:08:02;;;;;;;;;;;;;;;-3.48;100.00;94925.06;5010590;28;19921;-85
2022/12/16 00:10:51;;;;;;;;;;;;;;;-3.46;100.00;94915.47;5012586;28;19922;-85
2022/12/16 00:13:14;;;;;;;;;;;;;;;-3.48;100.00;94923.31;5011090;28;19936;-86
2022/12/16 00:15:41;;;;;;;;;;;;;;;-3.52;100.00;94918.47;5020511;28;19912;-85
2022/12/16 00:18:06;;;;;;;;;;;;;;;-3.52;100.00;94909.03;4998117;28;19982;-85
2022/12/16 00:20:32;;;;;;;;;;;;;;;-3.54;100.00;94908.31;4996135;28;19913;-85
2022/12/16 00:22:57;;;;;;;;;;;;;;;-3.52;100.00;94911.63;5004340;28;19921;-85
2022/12/16 00:25:23;;;;;;;;;;;;;;;-3.47;100.00;94911.28;5019442;28;19919;-85
2022/12/16 00:27:48;;;;;;;;;;;;;;;-3.54;100.00;94916.03;5009949;28;19996;-86
2022/12/16 00:30:14;;;;;;;;;;;;;;;-3.50;100.00;94914.06;5003482;28;19921;-85
2022/12/16 00:32:39;;;;;;;;;;;;;;;-3.53;100.00;94915.09;5018463;28;19943;-85
2022/12/16 00:35:05;;;;;;;;;;;;;;;-3.57;100.00;94916.22;5016149;28;20019;-85
2022/12/16 00:37:31;;;;;;;;;;;;;;;-3.52;100.00;94918.47;5001943;28;19923;-85
2022/12/16 00:39:57;;;;;;;;;;;;;;;-3.51;100.00;94920.13;5013918;28;19917;-85
2022/12/16 00:42:22;;;;;;;;;;;;;;;-3.56;100.00;94923.81;5017915;28;19924;-85
2022/12/16 00:44:48;;;;;;;;;;;;;;;-3.53;100.00;94921.97;5019624;28;19962;-85
2022/12/16 00:47:13;;;;;;;;;;;;;;;-3.56;100.00;94925.56;5012925;28;19924;-86
2022/12/16 00:49:39;;;;;;;;;;;;;;;-3.53;100.00;94932.25;5020139;28;19974;-86
2022/12/16 00:52:04;;;;;;;;;;;;;;;-3.57;100.00;94931.66;5002947;28;19962;-85
2022/12/16 00:54:29;;;;;;;;;;;;;;;-3.60;100.00;94934.44;5016855;28;19954;-85
2022/12/16 00:56:55;;;;;;;;;;;;;;;-3.59;100.00;94938.63;5006962;28;19924;-86
2022/12/16 00:59:21;;;;;;;;;;;;;;;-3.57;100.00;94937.59;5011730;28;19919;-86
2022/12/16 01:01:46;;;;;;;;;;;;;;;-3.62;100.00;94939.69;5015715;28;19921;-86
2022/12/16 01:04:13;;;;;;;;;;;;;;;-3.62;100.00;94939.69;5011982;28;19913;-85
2022/12/16 01:06:38;;;;;;;;;;;;;;;-3.58;100.00;94946.25;5013154;28;19916;-85
2022/12/16 01:09:04;;;;;;;;;;;;;;;-3.61;100.00;94943.06;5006042;28;20286;-85
2022/12/16 01:11:29;;;;;;;;;;;;;;;-3.67;100.00;94936.59;5028706;28;19916;-86
2022/12/16 01:13:55;;;;;;;;;;;;;;;-3.62;100.00;94942.25;5000644;28;20217;-86
2022/12/16 01:16:20;;;;;;;;;;;;;;;-3.57;100.00;94932.47;5006443;28;19920;-85
2022/12/16 01:18:46;;;;;;;;;;;;;;;-3.59;100.00;94928.34;4997784;28;19919;-86
2022/12/16 01:21:12;;;;;;;;;;;;;;;-3.61;100.00;94936.19;4997214;28;19913;-86
2022/12/16 01:23:38;;;;;;;;;;;;;;;-3.59;100.00;94934.34;4997877;28;20396;-86
2022/12/16 01:26:05;;;;;;;;;;;;;;;-3.54;100.00;94930.63;4996535;28;19913;-86
2022/12/16 01:28:30;;;;;;;;;;;;;;;-3.54;100.00;94931.44;5006360;28;19928;-86
2022/12/16 01:31:00;;;;;;;;;;;;;;;-3.64;100.00;94930.44;5011071;28;19947;-85
2022/12/16 01:33:30;;;;;;;;;;;;;;;-3.65;100.00;94936.50;5016157;28;19913;-86
2022/12/16 01:36:04;;;;;;;;;;;;;;;-3.64;100.00;94944.09;5023108;28;19913;-86
2022/12/16 01:38:30;;;;;;;;;;;;;;;-3.58;100.00;94951.38;5007743;28;20320;-85
2022/12/16 01:40:55;;;;;;;;;;;;;;;-3.53;100.00;94950.25;5021721;28;19924;-86
2022/12/16 01:43:25;;;;;;;;;;;;;;;-3.63;100.00;94958.56;5012527;28;19940;-86
2022/12/16 01:45:52;;;;;;;;;;;;;;;-3.60;100.00;94968.66;5043538;28;20013;-86
2022/12/16 01:48:32;;;;;;;;;;;;;;;-3.56;100.00;94970.06;5014495;28;20477;-85
2022/12/16 01:51:01;;;;;;;;;;;;;;;-3.63;100.00;94968.03;5008636;28;20066;-85
2022/12/16 01:53:27;;;;;;;;;;;;;;;-3.54;100.00;94982.03;5009476;28;20351;-86
2022/12/16 01:55:54;;;;;;;;;;;;;;;-3.49;100.00;94991.03;5006521;28;19967;-85
2022/12/16 01:58:22;;;;;;;;;;;;;;;-3.54;100.00;94992.31;5026242;28;19998;-86
2022/12/16 02:00:48;;;;;;;;;;;;;;;-3.55;100.00;94991.47;5008852;28;19920;-86
2022/12/16 02:03:14;;;;;;;;;;;;;;;-3.41;100.00;94998.25;5011593;28;19982;-85
2022/12/16 02:05:41;;;;;;;;;;;;;;;-3.41;100.00;95003.38;5013502;28;19917;-85
2022/12/16 02:08:14;;;;;;;;;;;;;;;-3.41;100.00;95001.63;5016199;28;19921;-86
2022/12/16 02:10:39;;;;;;;;;;;;;;;-3.42;100.00;94997.44;5009382;28;20222;-86
2022/12/16 02:13:13;;;;;;;;;;;;;;;-3.40;100.00;94997.31;5013042;28;19917;-85
2022/12/16 02:15:57;;;;;;;;;;;;;;;-3.38;100.00;94992.91;5005387;28;19917;-85
2022/12/16 02:18:32;;;;;;;;;;;;;;;-3.38;100.00;94985.19;5021348;28;19924;-86
2022/12/16 02:21:04;;;;;;;;;;;;;;;-3.40;100.00;94989.59;5015152;28;19975;-85
2022/12/16 02:23:29;;;;;;;;;;;;;;;-3.48;100.00;94987.56;4996582;28;19917;-85
2022/12/16 02:26:09;;;;;;;;;;;;;;;-3.40;100.00;94998.13;5011920;28;19920;-86
2022/12/16 02:28:38;;;;;;;;;;;;;;;-3.37;100.00;95003.06;5011202;28;20029;-86
2022/12/16 02:31:10;;;;;;;;;;;;;;;-3.41;100.00;95011.91;5009654;28;19975;-86
2022/12/16 02:33:35;;;;;;;;;;;;;;;-3.44;100.00;95006.97;5010030;28;20048;-85
2022/12/16 02:36:04;;;;;;;;;;;;;;;-3.40;100.00;95005.03;5008460;28;19988;-86
2022/12/16 02:38:37;;;;;;;;;;;;;;;-3.42;100.00;94996.59;5011455;28;19920;-86
2022/12/16 02:41:05;;;;;;;;;;;;;;;-3.49;100.00;94996.19;5005943;28;19913;-86
2022/12/16 02:43:47;;;;;;;;;;;;;;;-3.46;100.00;94990.00;5011403;28;19923;-85
2022/12/16 02:46:13;;;;;;;;;;;;;;;-3.39;100.00;94997.19;5010054;28;19917;-86
2022/12/16 02:48:38;;;;;;;;;;;;;;;-3.45;100.00;94999.38;5021539;28;19921;-85
2022/12/16 02:51:04;;;;;;;;;;;;;;;-3.42;100.00;94996.59;5019762;28;19923;-85
2022/12/16 02:53:31;;;;;;;;;;;;;;;-3.42;100.00;95001.72;5029808;28;19920;-85
2022/12/16 02:56:17;;;;;;;;;;;;;;;-3.39;100.00;95001.50;5042825;28;20263;-86
2022/12/16 02:58:42;;;;;;;;;;;;;;;-3.40;100.00;95007.59;5013576;28;19913;-85
2022/12/16 03:01:11;;;;;;;;;;;;;;;-3.39;100.00;95006.66;5002986;28;19913;-86
2022/12/16 03:03:42;;;;;;;;;;;;;;;-3.34;100.00;95009.75;5002824;28;19916;-86
2022/12/16 03:06:09;;;;;;;;;;;;;;;-3.49;100.00;95013.34;5024739;28;19932;-86
2022/12/16 03:08:39;;;;;;;;;;;;;;;-3.37;100.00;95015.09;5007188;28;19967;-85
2022/12/16 03:11:07;;;;;;;;;;;;;;;-3.42;100.00;95012.00;5015721;28;20046;-85
2022/12/16 03:13:42;;;;;;;;;;;;;;;-3.45;100.00;95017.38;5028399;28;19916;-86
2022/12/16 03:16:09;;;;;;;;;;;;;;;-3.43;100.00;95025.78;5025028;28;19928;-86
2022/12/16 03:18:37;;;;;;;;;;;;;;;-3.39;100.00;95016.94;5012302;28;19912;-86
2022/12/16 03:21:04;;;;;;;;;;;;;;;-3.28;100.00;95021.38;5014985;28;19920;-85
2022/12/16 03:23:38;;;;;;;;;;;;;;;-3.32;100.00;95028.44;5026636;28;19920;-86
2022/12/16 03:26:09;;;;;;;;;;;;;;;-3.28;100.00;95019.63;5052370;28;19913;-86
2022/12/16 03:28:46;;;;;;;;;;;;;;;-3.33;100.00;95021.66;5021451;28;19960;-85
2022/12/16 03:31:19;;;;;;;;;;;;;;;-3.41;100.00;95026.53;5022422;28;19913;-85
2022/12/16 03:33:50;;;;;;;;;;;;;;;-3.31;100.00;95024.97;5008656;28;19925;-86
2022/12/16 03:36:19;;;;;;;;;;;;;;;-3.30;100.00;95020.66;5014199;28;20690;-86
2022/12/16 03:38:46;;;;;;;;;;;;;;;-3.37;100.00;95030.53;5013379;28;20701;-86
2022/12/16 03:41:12;;;;;;;;;;;;;;;-3.36;100.00;95032.16;5024329;28;20446;-85
2022/12/16 03:43:37;;;;;;;;;;;;;;;-3.34;100.00;95025.16;5012368;28;19924;-85
2022/12/16 03:46:05;;;;;;;;;;;;;;;-3.46;100.00;95026.00;5016349;28;19971;-86
2022/12/16 03:48:30;;;;;;;;;;;;;;;-3.39;100.00;95034.94;5015614;28;20019;-86
2022/12/16 03:50:56;;;;;;;;;;;;;;;-3.36;100.00;95032.97;5000929;28;20379;-86
2022/12/16 03:53:25;;;;;;;;;;;;;;;-3.45;100.00;95028.47;5012271;28;20160;-86
2022/12/16 03:55:51;;;;;;;;;;;;;;;-3.48;100.00;95033.81;5011277;28;19987;-85
2022/12/16 03:58:16;;;;;;;;;;;;;;;-3.44;100.00;95039.56;5046614;28;20611;-86
2022/12/16 04:00:42;;;;;;;;;;;;;;;-3.46;100.00;95038.84;4999238;28;19967;-86
2022/12/16 04:03:07;;;;;;;;;;;;;;;-3.47;100.00;95050.88;5002290;28;19916;-86
2022/12/16 04:05:33;;;;;;;;;;;;;;;-3.43;100.00;95052.31;5026214;28;20007;-85
2022/12/16 04:07:58;;;;;;;;;;;;;;;-3.43;100.00;95046.34;5020270;28;19966;-86
2022/12/16 04:24:18;;;;;;;;;;;;;;;-3.50;100.00;95066.50;5021384;28;19913;-85
2022/12/16 04:29:28;;;;;;;;;;;;;;;-3.59;100.00;95065.38;5027988;28;19966;-85
2022/12/16 04:31:54;;;;;;;;;;;;;;;-3.54;100.00;95069.38;5038213;28;19920;-86
2022/12/16 04:34:28;;;;;;;;;;;;;;;-3.56;100.00;95072.88;5017392;28;20055;-85
